Time;durP1;ratioP1;P1;durP2;ratioP2;P2;SDS_P1;SDS_P2;PMS_P1;PMS_P2;Temp;Humidity;BMP_temperature;BMP_pressure;BME280_temperature;BME280_humidity;BME280_pressure;Samples;Min_cycle;Max_cycle;Signal;HPM_P1;HPM_P2
2023/05/19 00:01:28;;;;;;;15.90;6.07;;;11.50;99.90;;;;;;7291860;19;20190;-90
2023/05/19 00:04:01;;;;;;;13.93;6.20;;;11.40;99.90;;;;;;7293341;19;20200;-90
2023/05/19 00:06:32;;;;;;;16.13;6.80;;;11.30;99.90;;;;;;7291133;19;20188;-90
2023/05/19 00:08:59;;;;;;;14.57;6.10;;;11.30;99.90;;;;;;7293370;19;20223;-90
2023/05/19 00:11:26;;;;;;;15.23;6.67;;;11.30;99.90;;;;;;7293237;19;20191;-89
2023/05/19 00:13:53;;;;;;;15.03;6.03;;;11.20;99.90;;;;;;7293047;19;20191;-91
2023/05/19 00:16:20;;;;;;;17.07;7.10;;;11.20;99.90;;;;;;7296936;19;20196;-90
2023/05/19 00:18:47;;;;;;;12.70;6.20;;;11.20;99.90;;;;;;7315401;19;20558;-90
2023/05/19 00:21:13;;;;;;;17.90;6.73;;;11.30;99.90;;;;;;7292933;19;20271;-90
2023/05/19 00:23:38;;;;;;;13.50;6.83;;;11.30;99.90;;;;;;7292985;19;20186;-90
2023/05/19 00:26:04;;;;;;;14.70;6.73;;;11.20;99.90;;;;;;7293459;19;20191;-90
2023/05/19 00:28:30;;;;;;;14.27;6.63;;;11.10;99.90;;;;;;7294725;19;20198;-90
2023/05/19 00:30:56;;;;;;;14.60;6.97;;;11.10;99.90;;;;;;7293935;19;20192;-90
2023/05/19 00:33:22;;;;;;;13.30;6.53;;;11.00;99.90;;;;;;7291979;19;20210;-90
2023/05/19 00:35:48;;;;;;;12.67;6.90;;;10.90;99.90;;;;;;7314522;19;20281;-90
2023/05/19 00:38:13;;;;;;;13.87;6.60;;;10.80;99.90;;;;;;7308966;19;20296;-89
2023/05/19 00:40:39;;;;;;;16.40;6.70;;;10.80;99.90;;;;;;7296055;19;20203;-90
2023/05/19 00:43:07;;;;;;;17.10;6.73;;;10.70;99.90;;;;;;7295355;19;20207;-90
2023/05/19 00:45:33;;;;;;;17.40;6.83;;;10.70;99.90;;;;;;7294881;19;20218;-90
2023/05/19 00:47:59;;;;;;;16.90;6.97;;;10.60;99.90;;;;;;7296280;19;20552;-91
2023/05/19 00:50:27;;;;;;;13.77;6.60;;;10.60;99.90;;;;;;7297037;19;20178;-90
2023/05/19 00:52:54;;;;;;;18.40;7.20;;;10.40;99.90;;;;;;7292784;19;20182;-90
2023/05/19 00:55:28;;;;;;;15.80;7.23;;;10.40;99.90;;;;;;7291348;19;20234;-90
2023/05/19 00:57:55;;;;;;;15.73;7.53;;;10.30;99.90;;;;;;7292513;19;20194;-90
2023/05/19 01:00:22;;;;;;;17.00;7.13;;;10.40;99.90;;;;;;7287769;19;20179;-90
2023/05/19 01:02:49;;;;;;;15.27;7.47;;;10.40;99.90;;;;;;7312935;19;20185;-91
2023/05/19 01:05:15;;;;;;;18.03;7.03;;;10.40;99.90;;;;;;7291141;19;20679;-89
2023/05/19 01:07:41;;;;;;;16.20;7.83;;;10.40;99.90;;;;;;7290788;19;20212;-89
2023/05/19 01:10:08;;;;;;;15.33;7.40;;;10.40;99.90;;;;;;7291966;19;20183;-90
2023/05/19 01:12:35;;;;;;;16.00;7.43;;;10.20;99.90;;;;;;7290814;19;20197;-90
2023/05/19 01:15:02;;;;;;;15.30;6.87;;;10.20;99.90;;;;;;7290702;19;20212;-90
2023/05/19 01:17:41;;;;;;;13.43;7.00;;;10.10;99.90;;;;;;7291202;19;20185;-90
2023/05/19 01:20:21;;;;;;;15.27;7.20;;;10.10;99.90;;;;;;7290222;19;20749;-90
2023/05/19 01:23:03;;;;;;;17.00;7.37;;;10.10;99.90;;;;;;7292738;19;20214;-90
2023/05/19 01:25:47;;;;;;;15.70;6.87;;;9.90;99.90;;;;;;7187803;19;2004420;-90
2023/05/19 01:28:38;;;;;;;12.57;7.07;;;9.90;99.90;;;;;;7290860;19;20186;-89
2023/05/19 01:31:07;;;;;;;16.00;7.20;;;9.90;99.90;;;;;;7188674;19;2004431;-89
2023/05/19 01:33:34;;;;;;;14.87;7.40;;;9.90;99.90;;;;;;7289589;19;20193;-89
2023/05/19 01:36:02;;;;;;;14.67;7.57;;;9.90;99.90;;;;;;7291275;19;20190;-89
2023/05/19 01:38:29;;;;;;;12.70;7.17;;;10.00;99.90;;;;;;7290536;19;20249;-89
2023/05/19 01:40:56;;;;;;;18.27;7.93;;;10.00;99.90;;;;;;7289021;19;20173;-89
2023/05/19 01:43:24;;;;;;;14.43;8.30;;;9.90;99.90;;;;;;7289734;19;20192;-90
2023/05/19 01:45:52;;;;;;;15.17;8.30;;;9.80;99.90;;;;;;7290208;19;20182;-89
2023/05/19 01:48:18;;;;;;;17.93;8.47;;;9.80;99.90;;;;;;7308151;19;20189;-89
2023/05/19 01:50:44;;;;;;;15.00;7.93;;;9.80;99.90;;;;;;7305434;19;20179;-88
2023/05/19 01:53:11;;;;;;;15.87;8.60;;;9.70;99.90;;;;;;7289307;19;20189;-90
2023/05/19 01:55:46;;;;;;;14.43;8.13;;;9.70;99.90;;;;;;7291542;19;20183;-89
2023/05/19 01:58:27;;;;;;;19.23;8.50;;;9.70;99.90;;;;;;7289466;19;20194;-90
2023/05/19 02:01:07;;;;;;;16.17;9.60;;;9.60;99.90;;;;;;7186977;19;2004679;-91
2023/05/19 02:04:03;;;;;;;21.07;9.07;;;9.30;99.90;;;;;;7291821;19;20224;-90
2023/05/19 02:07:07;;;;;;;20.03;8.73;;;9.40;99.90;;;;;;7188592;19;2004422;-89
2023/05/19 02:09:58;;;;;;;15.83;8.60;;;9.40;99.90;;;;;;7184963;19;2004409;-90
2023/05/19 02:12:39;;;;;;;15.27;7.80;;;9.40;99.90;;;;;;7185003;19;2004557;-92
2023/05/19 02:15:20;;;;;;;15.33;8.27;;;9.30;99.90;;;;;;7289399;19;20211;-89
2023/05/19 02:17:50;;;;;;;17.67;8.37;;;9.30;99.90;;;;;;7289639;19;20178;-91
2023/05/19 02:20:17;;;;;;;17.60;8.53;;;9.40;99.90;;;;;;7289801;19;20189;-90
2023/05/19 02:22:44;;;;;;;18.67;8.37;;;9.30;99.90;;;;;;7289436;19;20274;-90
2023/05/19 02:25:12;;;;;;;18.73;8.73;;;9.30;99.90;;;;;;7288361;19;20185;-90
2023/05/19 02:27:38;;;;;;;15.93;8.73;;;9.20;99.90;;;;;;7287335;19;20200;-90
2023/05/19 02:30:07;;;;;;;16.20;8.50;;;9.20;99.90;;;;;;7289482;19;20199;-90
2023/05/19 02:32:33;;;;;;;16.33;8.83;;;9.20;99.90;;;;;;7287952;19;20193;-91
2023/05/19 02:34:59;;;;;;;21.60;9.33;;;9.10;99.90;;;;;;7289295;19;20189;-91
2023/05/19 02:37:27;;;;;;;17.30;8.53;;;9.10;99.90;;;;;;7286631;19;20190;-90
2023/05/19 02:39:54;;;;;;;16.80;8.93;;;9.20;99.90;;;;;;7287054;19;20237;-91
2023/05/19 02:42:20;;;;;;;20.80;9.53;;;9.20;99.90;;;;;;7294859;19;20193;-91
2023/05/19 02:44:47;;;;;;;15.83;8.67;;;9.10;99.90;;;;;;7310478;19;20641;-90
2023/05/19 02:47:13;;;;;;;15.83;8.93;;;9.00;99.90;;;;;;7288183;19;20205;-91
2023/05/19 02:49:39;;;;;;;20.00;9.10;;;8.90;99.90;;;;;;7289377;19;20186;-90
2023/05/19 02:52:05;;;;;;;17.33;8.77;;;8.90;99.90;;;;;;7288165;19;20196;-90
2023/05/19 02:54:33;;;;;;;20.93;9.23;;;8.80;99.90;;;;;;7287986;19;20188;-91
2023/05/19 02:56:59;;;;;;;21.70;8.83;;;8.80;99.90;;;;;;7288584;19;20222;-91
2023/05/19 02:59:25;;;;;;;16.77;8.03;;;8.80;99.90;;;;;;7286769;19;20275;-91
2023/05/19 03:01:55;;;;;;;19.57;9.20;;;8.70;99.90;;;;;;7287965;19;20291;-91
2023/05/19 03:04:21;;;;;;;18.23;8.97;;;8.70;99.90;;;;;;7287486;19;20196;-91
2023/05/19 03:06:47;;;;;;;19.17;8.63;;;8.60;99.90;;;;;;7308925;19;20189;-92
2023/05/19 03:09:15;;;;;;;16.13;9.03;;;8.50;99.90;;;;;;7288454;19;20308;-91
2023/05/19 03:11:41;;;;;;;20.33;9.47;;;8.30;99.90;;;;;;7287611;19;20184;-91
2023/05/19 03:14:12;;;;;;;17.47;9.53;;;8.20;99.90;;;;;;7287762;19;20203;-90
2023/05/19 03:16:39;;;;;;;16.03;9.20;;;8.30;99.90;;;;;;7288548;19;20193;-90
2023/05/19 03:19:05;;;;;;;18.73;9.60;;;8.30;99.90;;;;;;7287707;19;20196;-91
2023/05/19 03:21:33;;;;;;;18.17;9.63;;;8.30;99.90;;;;;;7287438;19;20202;-92
2023/05/19 03:23:59;;;;;;;17.60;9.80;;;8.20;99.90;;;;;;7286157;19;20577;-91
2023/05/19 03:26:26;;;;;;;18.40;9.00;;;8.30;99.90;;;;;;7286713;19;20181;-90
2023/05/19 03:28:52;;;;;;;19.17;9.67;;;8.30;99.90;;;;;;7285946;19;20201;-91
2023/05/19 03:31:18;;;;;;;17.70;9.77;;;8.10;99.90;;;;;;7309536;19;20185;-90
2023/05/19 03:33:44;;;;;;;18.17;10.20;;;8.00;99.90;;;;;;7286400;19;20198;-90
2023/05/19 03:36:11;;;;;;;18.90;9.97;;;8.00;99.90;;;;;;7287005;19;20252;-90
2023/05/19 03:38:38;;;;;;;18.40;9.83;;;8.00;99.90;;;;;;7286796;19;20201;-90
2023/05/19 03:41:04;;;;;;;18.80;10.60;;;8.00;99.90;;;;;;7286254;19;20256;-91
2023/05/19 03:43:30;;;;;;;19.87;9.97;;;7.90;99.90;;;;;;7287325;19;20192;-90
2023/05/19 03:46:01;;;;;;;16.50;9.77;;;7.90;99.90;;;;;;7287647;19;20224;-91
2023/05/19 03:48:45;;;;;;;19.93;10.07;;;8.00;99.90;;;;;;7287405;19;20736;-91
2023/05/19 03:51:47;;;;;;;16.87;9.67;;;8.10;99.90;;;;;;7185201;19;2004600;-90
2023/05/19 03:54:23;;;;;;;17.10;10.43;;;8.20;99.90;;;;;;7264877;19;20282;-91
2023/05/19 03:56:50;;;;;;;18.73;10.67;;;8.20;99.90;;;;;;7294400;19;20187;-91
2023/05/19 03:59:16;;;;;;;18.23;10.20;;;8.20;99.90;;;;;;7308610;19;20280;-90
2023/05/19 04:01:41;;;;;;;20.37;10.63;;;8.30;99.90;;;;;;7285623;19;20186;-90
2023/05/19 04:04:07;;;;;;;21.53;10.83;;;8.30;99.90;;;;;;7287758;19;20202;-91
2023/05/19 04:06:33;;;;;;;21.80;11.13;;;8.40;99.90;;;;;;7286256;19;20213;-90
2023/05/19 04:09:00;;;;;;;18.00;10.60;;;8.50;99.90;;;;;;7286959;19;20539;-90
2023/05/19 04:11:26;;;;;;;20.93;11.50;;;8.50;99.90;;;;;;7287776;19;20212;-90
2023/05/19 04:13:52;;;;;;;21.47;10.83;;;8.60;99.90;;;;;;7285744;19;20185;-90
2023/05/19 04:16:18;;;;;;;17.97;10.77;;;8.70;99.90;;;;;;7310738;19;20204;-90
2023/05/19 04:18:45;;;;;;;19.63;10.37;;;8.80;99.90;;;;;;7286265;19;20192;-89
2023/05/19 04:21:10;;;;;;;20.50;10.67;;;8.80;99.90;;;;;;7285359;19;20225;-90
2023/05/19 04:23:37;;;;;;;19.43;11.20;;;8.90;99.90;;;;;;7286348;19;20687;-90
2023/05/19 04:26:05;;;;;;;20.57;10.93;;;9.00;99.90;;;;;;7286132;19;20189;-90
2023/05/19 04:28:34;;;;;;;19.77;10.27;;;9.10;99.90;;;;;;7286447;19;20201;-91
2023/05/19 04:31:00;;;;;;;15.07;9.73;;;9.20;99.90;;;;;;7287399;19;20214;-91
2023/05/19 04:33:28;;;;;;;20.97;10.03;;;9.30;99.90;;;;;;7284722;19;20261;-91
2023/05/19 04:35:54;;;;;;;15.77;9.40;;;9.30;99.90;;;;;;7289352;19;20197;-91
2023/05/19 04:38:20;;;;;;;16.37;8.67;;;9.30;99.90;;;;;;7304744;19;20253;-91
2023/05/19 04:40:49;;;;;;;17.10;9.00;;;9.60;99.90;;;;;;7311228;19;20186;-92
2023/05/19 04:43:16;;;;;;;17.53;9.17;;;10.30;99.90;;;;;;7294832;19;20732;-91
2023/05/19 04:45:43;;;;;;;14.33;8.50;;;11.20;99.90;;;;;;7293389;19;20223;-90
2023/05/19 04:48:11;;;;;;;15.97;7.53;;;12.10;99.90;;;;;;7292433;19;20955;-90
2023/05/19 04:50:40;;;;;;;14.50;7.20;;;12.80;99.90;;;;;;7292224;19;20185;-90
2023/05/19 04:53:08;;;;;;;13.77;7.23;;;13.60;99.90;;;;;;7292279;19;20201;-89
2023/05/19 04:55:34;;;;;;;14.00;7.27;;;14.30;99.90;;;;;;7292543;19;20189;-90
2023/05/19 04:58:00;;;;;;;14.63;6.60;;;15.10;99.90;;;;;;7291064;19;20194;-88
2023/05/19 05:00:27;;;;;;;10.97;6.20;;;16.00;99.90;;;;;;7289496;19;20254;-88
2023/05/19 05:03:05;;;;;;;12.67;7.00;;;16.60;99.90;;;;;;7291634;19;20285;-88
2023/05/19 05:05:32;;;;;;;12.53;7.17;;;17.00;99.90;;;;;;7286349;19;20659;-87
2023/05/19 05:07:58;;;;;;;16.47;7.93;;;17.50;99.90;;;;;;7290949;19;20202;-88
2023/05/19 05:10:26;;;;;;;16.93;7.97;;;17.80;99.90;;;;;;7292133;19;20272;-87
2023/05/19 05:12:53;;;;;;;18.73;8.30;;;18.20;99.90;;;;;;7290129;19;20216;-87
2023/05/19 05:15:20;;;;;;;15.40;8.17;;;19.00;99.90;;;;;;7308415;19;20191;-87
2023/05/19 05:17:50;;;;;;;12.20;6.90;;;19.80;99.90;;;;;;7298743;19;20185;-88
2023/05/19 05:20:21;;;;;;;14.93;6.70;;;20.30;99.90;;;;;;7298805;19;20205;-87
2023/05/19 05:22:47;;;;;;;11.03;6.60;;;20.40;99.90;;;;;;7312715;19;20291;-88
2023/05/19 05:25:15;;;;;;;18.67;7.40;;;20.60;99.90;;;;;;7289505;19;20205;-89
2023/05/19 05:27:42;;;;;;;19.63;7.93;;;21.30;99.90;;;;;;7289167;19;20199;-87
2023/05/19 05:30:08;;;;;;;18.37;8.77;;;21.90;99.90;;;;;;7290843;19;20185;-88
2023/05/19 05:32:36;;;;;;;19.27;9.53;;;22.40;99.90;;;;;;7288822;19;20295;-88
2023/05/19 05:35:08;;;;;;;18.10;10.10;;;22.70;99.90;;;;;;7290291;19;20189;-88
2023/05/19 05:37:34;;;;;;;19.43;9.97;;;23.00;99.90;;;;;;7290610;19;20198;-88
2023/05/19 05:40:00;;;;;;;24.37;9.13;;;23.00;99.90;;;;;;7290146;19;20191;-88
2023/05/19 05:42:26;;;;;;;19.43;9.10;;;23.00;99.90;;;;;;7289357;19;20184;-88
2023/05/19 05:44:52;;;;;;;22.73;10.13;;;23.00;99.90;;;;;;7288633;19;20208;-88
2023/05/19 05:47:19;;;;;;;16.03;9.13;;;23.40;99.10;;;;;;7310403;19;20189;-88
2023/05/19 05:49:47;;;;;;;17.80;9.10;;;23.30;99.20;;;;;;7291437;19;20203;-88
2023/05/19 05:52:14;;;;;;;18.50;9.00;;;23.60;98.80;;;;;;7289225;19;20262;-89
2023/05/19 05:54:45;;;;;;;22.07;9.80;;;23.90;97.70;;;;;;7290137;19;20286;-88
2023/05/19 05:57:14;;;;;;;20.37;10.67;;;24.10;97.60;;;;;;7289537;19;20233;-88
2023/05/19 05:59:41;;;;;;;21.53;10.63;;;24.10;95.50;;;;;;7288935;19;20213;-88
2023/05/19 06:02:07;;;;;;;16.20;9.53;;;23.40;95.70;;;;;;7289857;19;20197;-88
2023/05/19 06:04:34;;;;;;;17.83;10.20;;;23.40;95.80;;;;;;7288600;19;20189;-89
2023/05/19 06:07:00;;;;;;;20.60;10.43;;;22.50;96.90;;;;;;7288207;19;20185;-90
2023/05/19 06:09:29;;;;;;;17.23;10.43;;;21.50;99.80;;;;;;7288895;19;20289;-89
2023/05/19 06:11:57;;;;;;;17.30;10.40;;;22.00;99.30;;;;;;7287630;19;20185;-89
2023/05/19 06:14:25;;;;;;;20.10;11.10;;;22.20;98.30;;;;;;7288856;19;20226;-87
2023/05/19 06:17:11;;;;;;;17.80;10.10;;;21.50;98.00;;;;;;7287348;19;20283;-88
2023/05/19 06:19:37;;;;;;;18.23;10.37;;;21.40;98.50;;;;;;7284673;19;20197;-89
2023/05/19 06:22:03;;;;;;;17.90;10.73;;;21.70;99.50;;;;;;7286530;19;20192;-88
2023/05/19 06:24:30;;;;;;;19.47;10.23;;;21.70;99.10;;;;;;7285979;19;20201;-88
2023/05/19 06:26:56;;;;;;;16.27;10.40;;;21.70;98.70;;;;;;7288173;19;20211;-88
2023/05/19 06:29:22;;;;;;;20.60;10.97;;;22.20;99.10;;;;;;7287079;19;20701;-88
2023/05/19 06:31:49;;;;;;;21.37;11.23;;;22.10;97.80;;;;;;7330910;19;20233;-88
2023/05/19 06:34:16;;;;;;;18.87;9.83;;;21.90;97.60;;;;;;7312827;19;20237;-88
2023/05/19 06:36:43;;;;;;;20.50;10.47;;;21.70;97.80;;;;;;7294715;19;20193;-88
2023/05/19 06:39:10;;;;;;;21.63;10.17;;;21.40;98.40;;;;;;7288812;19;20186;-88
2023/05/19 06:41:36;;;;;;;21.33;10.50;;;21.40;98.40;;;;;;7287697;19;20192;-88
2023/05/19 06:44:08;;;;;;;18.83;10.20;;;21.40;98.30;;;;;;7287519;19;20331;-86
2023/05/19 06:46:34;;;;;;;17.60;9.97;;;21.10;98.70;;;;;;7287640;19;20196;-88
2023/05/19 06:49:02;;;;;;;16.10;9.33;;;20.70;99.90;;;;;;7287348;19;20671;-87
2023/05/19 06:51:32;;;;;;;19.83;10.13;;;21.00;99.90;;;;;;7287893;19;20188;-88
2023/05/19 06:54:02;;;;;;;17.77;9.90;;;20.90;99.80;;;;;;7286493;19;20747;-88
2023/05/19 06:56:28;;;;;;;18.00;9.93;;;20.90;99.70;;;;;;7288575;19;20586;-89
2023/05/19 06:58:55;;;;;;;15.77;10.33;;;21.60;99.90;;;;;;7285492;19;20184;-89
2023/05/19 07:01:26;;;;;;;15.70;9.70;;;22.50;98.20;;;;;;7287193;19;20192;-89
2023/05/19 07:03:54;;;;;;;16.63;10.07;;;22.60;98.10;;;;;;7289905;19;20202;-89
2023/05/19 07:06:20;;;;;;;18.97;9.37;;;23.20;98.20;;;;;;7307722;19;20188;-89
2023/05/19 07:08:46;;;;;;;18.13;8.97;;;23.10;96.30;;;;;;7317549;19;20188;-88
2023/05/19 07:11:12;;;;;;;17.17;9.57;;;23.90;94.70;;;;;;7291449;19;20192;-88
2023/05/19 07:13:40;;;;;;;20.50;10.68;;;23.90;94.20;;;;;;7288485;19;20198;-89
2023/05/19 07:16:06;;;;;;;17.10;9.60;;;24.50;94.70;;;;;;7287893;19;20199;-90
2023/05/19 07:18:32;;;;;;;19.23;9.88;;;24.80;94.40;;;;;;7287491;19;20892;-89
2023/05/19 07:20:58;;;;;;;21.50;9.77;;;25.70;93.10;;;;;;7298880;19;20261;-87
2023/05/19 07:23:24;;;;;;;16.95;8.88;;;25.70;91.30;;;;;;7287833;19;20264;-92
2023/05/19 07:25:55;;;;;;;17.73;8.52;;;26.30;90.50;;;;;;7288564;19;20189;-89
2023/05/19 07:28:20;;;;;;;15.45;9.60;;;26.60;89.60;;;;;;7295934;19;20192;-89
2023/05/19 07:30:47;;;;;;;20.25;9.52;;;27.90;85.30;;;;;;7306793;19;20188;-88
2023/05/19 07:33:12;;;;;;;18.80;9.73;;;28.30;82.50;;;;;;7287569;19;20185;-89
2023/05/19 07:35:39;;;;;;;18.58;9.27;;;28.90;79.40;;;;;;7286556;19;20201;-89
2023/05/19 07:38:06;;;;;;;17.35;8.73;;;30.10;74.80;;;;;;7287485;19;20203;-88
2023/05/19 07:40:32;;;;;;;15.82;8.57;;;30.20;73.20;;;;;;7286803;19;20264;-89
2023/05/19 07:42:57;;;;;;;19.80;8.85;;;28.90;71.60;;;;;;7287983;19;20692;-90
2023/05/19 07:45:23;;;;;;;13.50;8.73;;;28.10;72.90;;;;;;7288856;19;20193;-89
2023/05/19 07:47:49;;;;;;;15.88;9.23;;;27.80;74.00;;;;;;7308154;19;20201;-90
2023/05/19 07:50:15;;;;;;;16.45;8.45;;;27.60;73.40;;;;;;7288526;19;20265;-89
2023/05/19 07:52:41;;;;;;;13.80;8.32;;;27.40;74.80;;;;;;7288011;19;20189;-89
2023/05/19 07:55:06;;;;;;;17.48;8.10;;;29.50;72.90;;;;;;7286997;19;20192;-90
2023/05/19 07:57:32;;;;;;;13.15;7.78;;;29.60;69.40;;;;;;7287806;19;20248;-90
2023/05/19 07:59:58;;;;;;;14.90;7.85;;;29.40;69.30;;;;;;7286299;19;20189;-90
2023/05/19 08:02:24;;;;;;;13.40;7.43;;;28.90;69.60;;;;;;7286782;19;20644;-89
2023/05/19 08:04:50;;;;;;;16.85;8.20;;;28.80;70.50;;;;;;7310077;19;20200;-91
2023/05/19 08:07:16;;;;;;;13.93;6.90;;;29.30;69.90;;;;;;7305471;19;20214;-91
2023/05/19 08:09:44;;;;;;;16.65;7.50;;;30.80;68.80;;;;;;7289185;19;20189;-92
2023/05/19 08:12:10;;;;;;;13.77;6.25;;;31.40;65.10;;;;;;7295461;19;20216;-91
2023/05/19 08:14:36;;;;;;;15.70;8.48;;;32.80;62.20;;;;;;7294917;19;20220;-89
2023/05/19 08:17:02;;;;;;;15.25;7.00;;;31.10;61.80;;;;;;7295759;19;20189;-90
2023/05/19 08:19:28;;;;;;;14.90;6.57;;;31.40;62.70;;;;;;7293985;19;20277;-90
2023/05/19 08:21:54;;;;;;;13.13;6.00;;;31.10;59.90;;;;;;7291644;19;20192;-90
2023/05/19 08:24:20;;;;;;;13.15;5.50;;;31.70;58.30;;;;;;7310337;19;20185;-90
2023/05/19 08:26:46;;;;;;;12.00;4.78;;;31.50;59.20;;;;;;7314451;19;20196;-90
2023/05/19 08:29:11;;;;;;;11.63;4.93;;;31.00;59.80;;;;;;7292367;19;20196;-89
2023/05/19 08:31:37;;;;;;;13.90;4.97;;;31.10;59.00;;;;;;7293047;19;20189;-90
2023/05/19 08:34:03;;;;;;;9.63;4.30;;;29.60;58.80;;;;;;7292415;19;20200;-88
2023/05/19 08:36:29;;;;;;;10.70;5.50;;;29.80;59.80;;;;;;7293451;19;20193;-90
2023/05/19 08:38:58;;;;;;;12.27;5.18;;;30.80;58.80;;;;;;7291960;19;20184;-87
2023/05/19 08:41:25;;;;;;;13.68;5.38;;;30.40;59.60;;;;;;7292362;19;20205;-89
2023/05/19 08:43:51;;;;;;;13.82;5.50;;;29.50;58.90;;;;;;7303796;19;20196;-88
2023/05/19 08:46:17;;;;;;;14.65;6.20;;;29.60;60.50;;;;;;7311771;19;20214;-90
2023/05/19 08:48:45;;;;;;;13.65;5.38;;;30.10;60.20;;;;;;7292840;19;20522;-90
2023/05/19 08:51:17;;;;;;;10.57;4.63;;;30.90;60.00;;;;;;7292524;19;20181;-90
2023/05/19 08:53:49;;;;;;;10.57;5.03;;;31.00;59.40;;;;;;7290257;19;20209;-91
2023/05/19 08:56:20;;;;;;;9.90;4.20;;;31.40;58.00;;;;;;7292158;19;20205;-89
2023/05/19 08:58:48;;;;;;;10.43;4.43;;;31.10;56.80;;;;;;7291188;19;20209;-89
2023/05/19 09:01:17;;;;;;;10.02;3.83;;;30.40;57.10;;;;;;7290531;19;20210;-89
2023/05/19 09:03:44;;;;;;;9.70;3.55;;;30.10;59.40;;;;;;7292620;19;20196;-90
2023/05/19 09:06:13;;;;;;;12.85;3.35;;;29.90;58.10;;;;;;7291296;19;20201;-89
2023/05/19 09:08:41;;;;;;;11.05;3.33;;;29.30;57.40;;;;;;7292112;19;20199;-90
2023/05/19 09:11:08;;;;;;;8.50;3.10;;;28.80;56.80;;;;;;7291135;19;20607;-89
2023/05/19 09:13:34;;;;;;;9.23;3.05;;;28.40;58.20;;;;;;7290916;19;20189;-89
2023/05/19 09:16:00;;;;;;;7.72;2.95;;;28.40;58.60;;;;;;7292253;19;20610;-90
2023/05/19 09:18:26;;;;;;;10.02;2.67;;;28.70;57.00;;;;;;7292032;19;20542;-89
2023/05/19 09:21:01;;;;;;;9.30;3.17;;;28.90;58.10;;;;;;7290870;19;20180;-90
2023/05/19 09:23:32;;;;;;;8.43;2.53;;;29.10;57.50;;;;;;7291011;19;20184;-90
2023/05/19 09:26:03;;;;;;;9.88;2.70;;;28.70;57.60;;;;;;7291457;19;20212;-90
2023/05/19 09:28:31;;;;;;;9.48;2.65;;;28.30;57.00;;;;;;7291567;19;20199;-90
2023/05/19 09:31:02;;;;;;;10.20;2.63;;;28.60;59.10;;;;;;7292307;19;20605;-89
2023/05/19 09:33:29;;;;;;;11.20;2.50;;;29.20;57.60;;;;;;7290147;19;20193;-90
2023/05/19 09:35:56;;;;;;;11.00;2.50;;;28.60;56.50;;;;;;7290470;19;20189;-90
2023/05/19 09:38:25;;;;;;;10.07;2.50;;;28.00;56.90;;;;;;7291955;19;20192;-90
2023/05/19 09:40:56;;;;;;;8.32;2.25;;;28.20;58.50;;;;;;7295709;19;20189;-90
2023/05/19 09:43:21;;;;;;;11.80;2.55;;;29.30;57.30;;;;;;7293902;19;20193;-90
2023/05/19 09:45:53;;;;;;;8.68;2.42;;;28.60;57.20;;;;;;7311779;19;20185;-91
2023/05/19 09:48:19;;;;;;;9.95;2.22;;;28.80;57.10;;;;;;7290524;19;20185;-90
2023/05/19 09:50:45;;;;;;;10.15;2.30;;;28.10;57.50;;;;;;7290615;19;20208;-90
2023/05/19 09:53:13;;;;;;;12.52;2.40;;;28.20;58.30;;;;;;7290634;19;20178;-91
2023/05/19 09:55:40;;;;;;;11.25;2.60;;;27.90;56.10;;;;;;7289516;19;20185;-91
2023/05/19 09:58:06;;;;;;;9.85;2.70;;;27.70;57.90;;;;;;7289350;19;20200;-90
2023/05/19 10:00:33;;;;;;;8.13;2.05;;;27.40;58.00;;;;;;7290357;19;20189;-91
2023/05/19 10:02:59;;;;;;;7.00;2.08;;;27.50;58.30;;;;;;7291654;19;20209;-91
2023/05/19 10:05:26;;;;;;;11.63;3.03;;;27.40;57.30;;;;;;7291011;19;20648;-90
2023/05/19 10:07:53;;;;;;;10.57;2.53;;;26.40;57.50;;;;;;7288797;19;20671;-90
2023/05/19 10:10:20;;;;;;;8.65;2.33;;;26.40;57.90;;;;;;7313583;19;20192;-91
2023/05/19 10:12:48;;;;;;;7.20;2.17;;;26.30;58.70;;;;;;7290767;19;20185;-91
2023/05/19 10:15:18;;;;;;;10.07;2.22;;;26.30;59.90;;;;;;7289995;19;20189;-90
2023/05/19 10:17:45;;;;;;;8.98;2.10;;;26.50;59.80;;;;;;7289628;19;20185;-91
2023/05/19 10:20:15;;;;;;;10.63;2.50;;;27.40;57.90;;;;;;7289667;19;20194;-91
2023/05/19 10:22:43;;;;;;;9.45;2.60;;;27.00;58.50;;;;;;7290245;19;20281;-91
2023/05/19 10:25:10;;;;;;;10.68;2.50;;;26.80;59.40;;;;;;7289335;19;20193;-91
2023/05/19 10:27:40;;;;;;;8.20;2.40;;;28.00;60.60;;;;;;7289188;19;20185;-92
2023/05/19 10:30:16;;;;;;;10.40;2.58;;;28.50;58.50;;;;;;7288446;19;20189;-91
2023/05/19 10:32:44;;;;;;;11.48;2.47;;;27.40;56.70;;;;;;7289305;19;20194;-91
2023/05/19 10:35:37;;;;;;;9.15;2.38;;;26.70;57.60;;;;;;7293062;19;20188;-92
2023/05/19 10:38:15;;;;;;;9.93;2.50;;;25.30;57.90;;;;;;7190245;19;2004615;-90
2023/05/19 10:41:02;;;;;;;8.77;2.40;;;25.70;61.20;;;;;;7289473;19;20190;-91
2023/05/19 10:43:54;;;;;;;8.38;2.50;;;26.20;59.30;;;;;;7186646;19;2004638;-90
2023/05/19 10:46:25;;;;;;;8.52;2.50;;;26.80;58.70;;;;;;7289179;19;20203;-90
2023/05/19 10:48:51;;;;;;;9.30;2.33;;;27.50;59.40;;;;;;7277954;19;20200;-90
2023/05/19 10:51:17;;;;;;;104.35;8.70;;;26.90;59.40;;;;;;7308681;19;20185;-90
2023/05/19 10:53:45;;;;;;;23.23;3.55;;;26.10;60.80;;;;;;7288079;19;20189;-90
2023/05/19 10:56:35;;;;;;;6.95;2.67;;;25.90;61.10;;;;;;7289403;19;20193;-90
2023/05/19 10:59:02;;;;;;;27.98;3.40;;;26.20;60.90;;;;;;7185286;19;2004627;-90
2023/05/19 11:01:35;;;;;;;11.43;2.75;;;26.90;62.30;;;;;;7282850;19;20180;-90
2023/05/19 11:04:12;;;;;;;9.25;2.83;;;27.60;59.30;;;;;;7289034;19;20192;-90
2023/05/19 11:06:39;;;;;;;10.38;3.15;;;27.90;57.90;;;;;;7286867;19;20217;-90
2023/05/19 11:09:11;;;;;;;11.05;2.72;;;28.00;57.30;;;;;;7288494;19;20193;-90
2023/05/19 11:11:44;;;;;;;8.30;2.58;;;28.20;58.20;;;;;;7288136;19;20188;-90
2023/05/19 11:14:12;;;;;;;7.60;2.47;;;27.70;58.60;;;;;;7288174;19;20192;-90
2023/05/19 11:16:44;;;;;;;10.45;3.20;;;28.00;58.40;;;;;;7288471;19;20244;-90
2023/05/19 11:19:18;;;;;;;8.32;2.90;;;27.90;57.40;;;;;;7287512;19;20192;-91
2023/05/19 11:21:53;;;;;;;8.82;3.40;;;27.10;57.70;;;;;;7288048;19;20195;-90
2023/05/19 11:24:36;;;;;;;10.38;3.25;;;26.40;57.70;;;;;;7288147;19;20195;-90
2023/05/19 11:27:29;;;;;;;9.98;3.42;;;25.80;60.90;;;;;;7186192;19;2004627;-91
2023/05/19 11:30:00;;;;;;;9.13;3.40;;;25.80;59.50;;;;;;7187233;19;2004431;-91
2023/05/19 11:32:32;;;;;;;14.35;3.83;;;26.50;59.60;;;;;;7287910;19;20188;-91
2023/05/19 11:34:58;;;;;;;10.98;3.35;;;27.20;58.30;;;;;;7287365;19;20527;-88
2023/05/19 11:37:24;;;;;;;8.85;3.08;;;28.80;57.50;;;;;;7287902;19;20193;-89
2023/05/19 11:39:51;;;;;;;8.85;3.03;;;29.60;57.70;;;;;;7311573;19;20212;-89
2023/05/19 11:42:16;;;;;;;11.18;2.80;;;28.30;57.30;;;;;;7293155;19;20181;-90
2023/05/19 11:44:46;;;;;;;8.48;3.10;;;29.20;57.60;;;;;;7289105;19;20218;-91
2023/05/19 11:47:16;;;;;;;7.82;3.20;;;28.00;56.50;;;;;;7293493;19;20192;-91
2023/05/19 11:49:50;;;;;;;10.32;3.05;;;27.80;56.70;;;;;;7294344;19;20222;-90
2023/05/19 11:52:16;;;;;;;11.13;3.15;;;28.40;56.60;;;;;;7295083;19;20212;-90
2023/05/19 11:54:46;;;;;;;10.38;2.90;;;28.30;57.20;;;;;;7293659;19;20325;-89
2023/05/19 11:57:12;;;;;;;8.88;3.25;;;27.30;57.30;;;;;;7300496;19;20184;-90
2023/05/19 11:59:44;;;;;;;9.77;3.30;;;27.60;57.70;;;;;;7301774;19;20201;-90
2023/05/19 12:02:26;;;;;;;9.15;3.03;;;27.10;57.10;;;;;;7310852;19;20248;-89
2023/05/19 12:04:53;;;;;;;10.60;3.10;;;26.30;57.20;;;;;;7297503;19;20209;-90
2023/05/19 12:07:23;;;;;;;10.38;2.75;;;25.60;59.40;;;;;;7327589;19;20188;-89
2023/05/19 12:09:50;;;;;;;10.18;3.15;;;25.40;58.80;;;;;;7299266;19;20185;-89
2023/05/19 12:12:20;;;;;;;8.90;3.05;;;25.40;60.40;;;;;;7298725;19;20177;-89
2023/05/19 12:14:47;;;;;;;9.32;3.00;;;25.20;61.40;;;;;;7295569;19;20192;-89
2023/05/19 12:17:16;;;;;;;11.25;3.35;;;24.30;60.90;;;;;;7295575;19;20191;-90
2023/05/19 12:19:47;;;;;;;11.15;3.22;;;23.60;60.00;;;;;;7298565;19;20185;-89
2023/05/19 12:22:14;;;;;;;12.33;3.20;;;23.10;63.60;;;;;;7295854;19;20189;-89
2023/05/19 12:24:42;;;;;;;8.93;3.00;;;22.70;61.70;;;;;;7297088;19;21168;-87
2023/05/19 12:27:21;;;;;;;10.50;3.00;;;22.60;66.00;;;;;;7295552;19;20212;-91
2023/05/19 12:29:55;;;;;;;10.43;3.40;;;22.60;66.00;;;;;;7292349;19;20188;-89
2023/05/19 12:32:27;;;;;;;9.97;3.30;;;22.80;65.30;;;;;;7266675;19;20199;-89
2023/05/19 12:35:00;;;;;;;11.57;3.20;;;22.70;64.80;;;;;;7292995;19;20200;-89
2023/05/19 12:37:28;;;;;;;8.83;2.77;;;22.60;66.20;;;;;;7292271;19;20202;-90
2023/05/19 12:40:02;;;;;;;13.30;3.03;;;22.40;68.70;;;;;;7291953;19;20184;-90
2023/05/19 12:42:30;;;;;;;10.10;2.80;;;22.10;67.40;;;;;;7293170;19;20281;-90
2023/05/19 12:44:56;;;;;;;11.60;3.50;;;21.70;69.00;;;;;;7295874;19;20184;-90
2023/05/19 12:47:30;;;;;;;9.63;2.93;;;21.60;68.50;;;;;;7299390;19;20193;-90